Time;durP1;ratioP1;P1;durP2;ratioP2;P2;SDS_P1;SDS_P2;PMS_P1;PMS_P2;Temp;Humidity;BMP_temperature;BMP_pressure;BME280_temperature;BME280_humidity;BME280_pressure;Samples;Min_cycle;Max_cycle;Signal;HPM_P1;HPM_P2
2023/08/23 00:00:05;;;;;;;5.65;1.90;;;;;;;;;;4958626;28;20237;-47
2023/08/23 00:02:58;;;;;;;4.53;1.60;;;;;;;;;;4958635;28;20207;-48
2023/08/23 00:05:25;;;;;;;5.82;2.15;;;;;;;;;;4958161;28;20204;-47
2023/08/23 00:07:53;;;;;;;5.72;1.48;;;;;;;;;;4958320;28;20242;-48
2023/08/23 00:10:20;;;;;;;5.30;1.83;;;;;;;;;;4958339;28;20295;-48
2023/08/23 00:12:49;;;;;;;3.50;1.58;;;;;;;;;;4958348;28;20211;-49
2023/08/23 00:15:16;;;;;;;8.95;1.80;;;;;;;;;;4958301;28;20294;-48
2023/08/23 00:17:43;;;;;;;4.28;1.70;;;;;;;;;;4958089;28;20553;-47
2023/08/23 00:20:11;;;;;;;7.35;2.00;;;;;;;;;;4958154;28;20215;-47
2023/08/23 00:22:38;;;;;;;6.65;1.75;;;;;;;;;;4958130;29;20211;-50
2023/08/23 00:25:06;;;;;;;8.50;1.60;;;;;;;;;;4958191;28;20207;-48
2023/08/23 00:27:33;;;;;;;5.68;1.80;;;;;;;;;;4957854;28;20736;-48
2023/08/23 00:30:03;;;;;;;5.65;1.55;;;;;;;;;;4956600;29;20626;-47
2023/08/23 00:32:30;;;;;;;4.18;1.60;;;;;;;;;;4957850;28;20200;-47
2023/08/23 00:34:57;;;;;;;4.60;1.67;;;;;;;;;;4956754;29;20569;-48
2023/08/23 00:37:25;;;;;;;4.35;1.92;;;;;;;;;;4956646;29;20203;-47
2023/08/23 00:39:52;;;;;;;4.50;1.63;;;;;;;;;;4957943;28;20274;-50
2023/08/23 00:42:19;;;;;;;2.70;1.38;;;;;;;;;;4957529;28;20288;-48
2023/08/23 00:44:46;;;;;;;6.00;1.30;;;;;;;;;;4957621;28;20631;-47
2023/08/23 00:47:13;;;;;;;7.38;1.73;;;;;;;;;;4957439;28;20227;-48
2023/08/23 00:49:40;;;;;;;1.88;1.27;;;;;;;;;;4972617;28;20204;-48
2023/08/23 00:52:08;;;;;;;7.72;1.92;;;;;;;;;;4956509;29;20211;-50
2023/08/23 00:54:35;;;;;;;3.88;1.48;;;;;;;;;;4957338;28;20207;-49
2023/08/23 00:57:03;;;;;;;4.15;1.55;;;;;;;;;;4956088;29;20215;-48
2023/08/23 00:59:31;;;;;;;5.22;1.60;;;;;;;;;;4957240;28;20575;-48
2023/08/23 01:01:58;;;;;;;4.60;1.35;;;;;;;;;;4955984;29;20212;-47
2023/08/23 01:04:25;;;;;;;2.83;1.23;;;;;;;;;;4957023;28;20720;-48
2023/08/23 01:07:10;;;;;;;3.78;1.70;;;;;;;;;;4956102;29;20239;-47
2023/08/23 01:09:59;;;;;;;4.68;1.73;;;;;;;;;;4939514;29;20203;-47
2023/08/23 01:12:36;;;;;;;4.35;1.60;;;;;;;;;;4957364;29;20636;-47
2023/08/23 01:15:05;;;;;;;4.10;1.50;;;;;;;;;;4955920;29;20199;-48
2023/08/23 01:17:37;;;;;;;3.17;1.63;;;;;;;;;;4957146;28;20210;-47
2023/08/23 01:20:05;;;;;;;6.43;1.73;;;;;;;;;;4955941;29;20630;-48
2023/08/23 01:22:36;;;;;;;5.30;1.70;;;;;;;;;;4940000;29;20211;-49
2023/08/23 01:25:03;;;;;;;3.72;1.55;;;;;;;;;;4939964;29;20199;-47
2023/08/23 01:27:33;;;;;;;2.90;1.48;;;;;;;;;;4955756;29;20235;-47
2023/08/23 01:30:14;;;;;;;2.80;1.30;;;;;;;;;;4957090;28;20562;-48
2023/08/23 01:33:29;;;;;;;4.10;1.58;;;;;;;;;;4955527;29;20558;-47
2023/08/23 01:36:18;;;;;;;8.43;1.63;;;;;;;;;;4916452;29;20205;-47
2023/08/23 01:38:47;;;;;;;4.15;1.35;;;;;;;;;;4916322;29;20285;-49
2023/08/23 01:41:15;;;;;;;5.30;1.63;;;;;;;;;;4900505;29;20624;-50
2023/08/23 01:43:48;;;;;;;4.65;1.73;;;;;;;;;;4916244;29;20209;-47
2023/08/23 01:46:15;;;;;;;4.43;1.70;;;;;;;;;;4900385;29;20760;-48
2023/08/23 01:48:42;;;;;;;3.55;1.73;;;;;;;;;;4916157;29;20205;-47
2023/08/23 01:51:09;;;;;;;3.53;1.65;;;;;;;;;;4900299;29;20299;-47
2023/08/23 01:53:37;;;;;;;4.38;1.70;;;;;;;;;;4900384;29;20212;-49
2023/08/23 01:56:05;;;;;;;2.58;1.70;;;;;;;;;;4900603;29;20235;-48
2023/08/23 01:58:32;;;;;;;5.25;1.77;;;;;;;;;;4900314;29;20209;-49
2023/08/23 02:01:00;;;;;;;6.45;1.80;;;;;;;;;;4900166;29;20244;-48
2023/08/23 02:03:27;;;;;;;4.90;1.65;;;;;;;;;;4915931;29;20599;-48
2023/08/23 02:05:55;;;;;;;3.90;1.70;;;;;;;;;;4915816;29;20567;-47
2023/08/23 02:08:22;;;;;;;8.35;2.10;;;;;;;;;;4915749;29;20259;-47
2023/08/23 02:10:49;;;;;;;3.88;1.90;;;;;;;;;;4923014;29;20204;-48
2023/08/23 02:13:17;;;;;;;2.85;1.40;;;;;;;;;;4954738;29;20691;-47
2023/08/23 02:15:44;;;;;;;3.38;1.75;;;;;;;;;;4952586;29;20689;-48
2023/08/23 02:18:12;;;;;;;5.97;2.00;;;;;;;;;;4936111;29;20220;-47
2023/08/23 02:20:43;;;;;;;5.60;1.90;;;;;;;;;;4936446;29;20203;-48
2023/08/23 02:23:10;;;;;;;3.25;2.00;;;;;;;;;;4936517;29;20569;-47
2023/08/23 02:25:37;;;;;;;5.20;2.17;;;;;;;;;;4936586;29;20696;-47
2023/08/23 02:28:04;;;;;;;3.00;1.90;;;;;;;;;;4935533;29;20575;-47
2023/08/23 02:30:31;;;;;;;2.72;2.08;;;;;;;;;;4936799;29;20204;-47
2023/08/23 02:33:01;;;;;;;2.78;1.90;;;;;;;;;;4936461;29;20208;-47
2023/08/23 02:35:28;;;;;;;3.58;1.90;;;;;;;;;;4936368;29;20210;-49
2023/08/23 02:37:57;;;;;;;4.28;1.77;;;;;;;;;;4946228;29;20735;-47
2023/08/23 02:40:24;;;;;;;4.28;1.80;;;;;;;;;;4954371;29;20234;-47
2023/08/23 02:42:55;;;;;;;5.45;2.17;;;;;;;;;;4955472;29;20735;-48
2023/08/23 02:45:22;;;;;;;6.88;2.30;;;;;;;;;;4955922;28;20207;-47
2023/08/23 02:47:49;;;;;;;3.33;1.92;;;;;;;;;;4955514;28;20238;-48
2023/08/23 02:50:17;;;;;;;4.07;1.83;;;;;;;;;;4986714;28;20222;-48
2023/08/23 02:52:44;;;;;;;5.03;1.90;;;;;;;;;;4955636;28;20203;-47
2023/08/23 02:55:12;;;;;;;3.75;2.08;;;;;;;;;;4955283;29;20547;-47
2023/08/23 02:57:40;;;;;;;4.93;2.17;;;;;;;;;;4986211;28;20250;-47
2023/08/23 03:00:08;;;;;;;4.47;1.85;;;;;;;;;;4986459;28;20207;-48
2023/08/23 03:02:35;;;;;;;4.10;2.10;;;;;;;;;;4955023;28;20210;-47
2023/08/23 03:05:02;;;;;;;3.28;1.80;;;;;;;;;;4941276;29;20341;-47
2023/08/23 03:07:29;;;;;;;6.22;2.10;;;;;;;;;;4935935;29;20236;-48
2023/08/23 03:09:57;;;;;;;3.40;2.20;;;;;;;;;;4934811;29;20208;-48
2023/08/23 03:12:24;;;;;;;4.63;1.90;;;;;;;;;;4936055;29;20570;-48
2023/08/23 03:14:51;;;;;;;2.60;1.95;;;;;;;;;;4935735;29;20204;-48
2023/08/23 03:17:19;;;;;;;4.65;2.17;;;;;;;;;;4935177;29;20216;-48
2023/08/23 03:19:48;;;;;;;5.15;2.00;;;;;;;;;;4934878;29;20212;-48
2023/08/23 03:22:16;;;;;;;7.35;2.30;;;;;;;;;;4933781;29;20200;-47
2023/08/23 03:24:43;;;;;;;3.75;1.83;;;;;;;;;;4934548;29;20199;-48
2023/08/23 03:27:10;;;;;;;3.97;1.80;;;;;;;;;;4949109;29;20227;-49
2023/08/23 03:29:37;;;;;;;4.88;2.28;;;;;;;;;;4935630;29;20200;-48
2023/08/23 03:32:05;;;;;;;3.00;2.00;;;;;;;;;;4945240;28;20203;-47
2023/08/23 03:34:32;;;;;;;3.70;2.03;;;;;;;;;;4965212;28;20226;-47
2023/08/23 03:37:00;;;;;;;4.30;2.10;;;;;;;;;;4948705;29;20219;-48
2023/08/23 03:39:27;;;;;;;5.88;1.90;;;;;;;;;;4946819;29;20235;-48
2023/08/23 03:41:54;;;;;;;3.08;1.80;;;;;;;;;;4948429;28;20208;-49
2023/08/23 03:44:21;;;;;;;4.88;2.28;;;;;;;;;;4943169;29;20219;-47
2023/08/23 03:46:48;;;;;;;8.35;1.88;;;;;;;;;;4944960;29;20231;-54
2023/08/23 03:49:16;;;;;;;5.53;2.08;;;;;;;;;;4946252;29;20295;-51
2023/08/23 03:51:43;;;;;;;6.40;1.75;;;;;;;;;;4969794;28;20204;-53
2023/08/23 03:54:10;;;;;;;6.75;2.20;;;;;;;;;;4937716;29;20211;-50
2023/08/23 03:56:38;;;;;;;3.90;1.85;;;;;;;;;;4937646;29;20204;-51
2023/08/23 03:59:06;;;;;;;7.13;2.20;;;;;;;;;;4953719;29;20264;-53
2023/08/23 04:01:33;;;;;;;4.45;2.17;;;;;;;;;;4939412;29;20212;-48
2023/08/23 04:04:00;;;;;;;2.95;2.22;;;;;;;;;;4939224;29;20204;-49
2023/08/23 04:06:28;;;;;;;4.82;2.00;;;;;;;;;;4939273;29;20216;-50
2023/08/23 04:08:55;;;;;;;3.65;2.33;;;;;;;;;;4939033;29;20250;-47
2023/08/23 04:11:22;;;;;;;7.53;2.15;;;;;;;;;;4939130;29;20565;-51
2023/08/23 04:13:49;;;;;;;4.53;2.35;;;;;;;;;;4945131;28;20282;-47
2023/08/23 04:16:16;;;;;;;7.32;2.28;;;;;;;;;;4956148;29;20231;-47
2023/08/23 04:18:44;;;;;;;6.75;2.10;;;;;;;;;;4972142;28;20317;-48
2023/08/23 04:21:11;;;;;;;4.82;2.17;;;;;;;;;;4955965;29;20227;-51
2023/08/23 04:23:38;;;;;;;6.38;2.58;;;;;;;;;;4957036;28;20421;-49
2023/08/23 04:26:06;;;;;;;6.97;2.63;;;;;;;;;;4956053;29;20791;-48
2023/08/23 04:28:33;;;;;;;6.03;2.55;;;;;;;;;;4971484;28;20227;-46
2023/08/23 04:31:03;;;;;;;3.15;1.95;;;;;;;;;;4956228;29;20227;-47
2023/08/23 04:33:53;;;;;;;5.40;2.50;;;;;;;;;;4956999;28;20235;-46
2023/08/23 04:36:21;;;;;;;6.50;2.20;;;;;;;;;;4955666;29;20236;-48
2023/08/23 04:38:48;;;;;;;3.58;2.50;;;;;;;;;;4955775;28;20277;-47
2023/08/23 04:41:15;;;;;;;8.48;2.50;;;;;;;;;;4944835;29;20589;-49
2023/08/23 04:43:42;;;;;;;5.75;2.50;;;;;;;;;;4954989;28;20236;-49
2023/08/23 04:46:10;;;;;;;4.28;2.53;;;;;;;;;;4955325;29;20231;-47
2023/08/23 04:48:37;;;;;;;5.50;2.40;;;;;;;;;;4955694;29;20239;-50
2023/08/23 04:51:08;;;;;;;2.58;2.20;;;;;;;;;;4954376;28;20223;-48
2023/08/23 04:53:36;;;;;;;6.50;2.38;;;;;;;;;;4971561;28;20704;-49
2023/08/23 04:56:03;;;;;;;6.03;2.72;;;;;;;;;;4954982;28;20231;-47
2023/08/23 04:58:31;;;;;;;5.65;2.60;;;;;;;;;;4953137;29;20293;-48
2023/08/23 05:01:06;;;;;;;9.38;3.05;;;;;;;;;;4969924;28;20231;-47
2023/08/23 05:03:37;;;;;;;5.20;2.63;;;;;;;;;;4954310;29;20734;-46
2023/08/23 05:06:04;;;;;;;4.72;3.00;;;;;;;;;;4954886;28;20278;-49
2023/08/23 05:08:35;;;;;;;4.35;2.72;;;;;;;;;;4956214;28;20245;-47
2023/08/23 05:11:10;;;;;;;3.78;2.28;;;;;;;;;;4955262;28;20246;-49
2023/08/23 05:13:37;;;;;;;6.88;3.05;;;;;;;;;;4954930;29;20223;-47
2023/08/23 05:16:05;;;;;;;9.02;2.80;;;;;;;;;;4970988;28;20678;-47
2023/08/23 05:18:33;;;;;;;5.20;2.47;;;;;;;;;;4971094;28;20219;-48
2023/08/23 05:21:02;;;;;;;7.40;2.55;;;;;;;;;;4986932;28;20199;-48
2023/08/23 05:23:29;;;;;;;8.10;2.38;;;;;;;;;;4969798;28;20244;-47
2023/08/23 05:25:57;;;;;;;3.97;2.33;;;;;;;;;;4955530;28;20207;-49
2023/08/23 05:28:25;;;;;;;4.93;2.92;;;;;;;;;;4971386;28;20227;-51
2023/08/23 05:30:52;;;;;;;4.88;2.80;;;;;;;;;;4956908;28;20207;-49
2023/08/23 05:33:24;;;;;;;4.15;2.30;;;;;;;;;;4955498;29;20204;-47
2023/08/23 05:35:52;;;;;;;3.72;2.08;;;;;;;;;;4956653;28;20214;-47
2023/08/23 05:38:20;;;;;;;4.50;2.30;;;;;;;;;;4971209;28;20731;-49
2023/08/23 05:40:47;;;;;;;5.82;2.60;;;;;;;;;;4955520;29;20665;-47
2023/08/23 05:43:14;;;;;;;4.43;2.25;;;;;;;;;;4956480;29;20211;-47
2023/08/23 05:45:43;;;;;;;4.13;2.10;;;;;;;;;;4955463;29;20207;-46
2023/08/23 05:48:10;;;;;;;4.43;2.55;;;;;;;;;;4955407;29;20234;-51
2023/08/23 05:50:38;;;;;;;4.90;2.03;;;;;;;;;;4955365;28;20211;-49
2023/08/23 05:53:09;;;;;;;4.10;2.22;;;;;;;;;;4956541;28;20211;-47
2023/08/23 05:55:37;;;;;;;4.28;2.20;;;;;;;;;;4956048;28;20212;-46
2023/08/23 05:58:04;;;;;;;4.93;2.20;;;;;;;;;;4956446;28;20215;-47
2023/08/23 06:00:31;;;;;;;12.65;2.30;;;;;;;;;;4956275;28;20212;-47
2023/08/23 06:02:59;;;;;;;4.95;2.35;;;;;;;;;;4956034;29;20203;-46
2023/08/23 06:05:27;;;;;;;5.93;2.20;;;;;;;;;;4956504;28;20277;-46
2023/08/23 06:07:53;;;;;;;4.15;2.08;;;;;;;;;;4955804;28;20725;-49
2023/08/23 06:10:21;;;;;;;2.17;1.50;;;;;;;;;;4956222;28;20212;-47
2023/08/23 06:12:48;;;;;;;4.28;2.10;;;;;;;;;;4955877;28;20290;-48
2023/08/23 06:15:15;;;;;;;2.60;1.52;;;;;;;;;;4955832;28;20207;-48
2023/08/23 06:17:42;;;;;;;3.55;1.60;;;;;;;;;;4956228;28;20208;-48
2023/08/23 06:20:10;;;;;;;2.20;1.75;;;;;;;;;;4956034;28;20212;-47
2023/08/23 06:22:38;;;;;;;4.13;2.20;;;;;;;;;;4956078;28;20206;-47
2023/08/23 06:25:05;;;;;;;3.88;2.00;;;;;;;;;;4955705;28;20218;-48
2023/08/23 06:27:32;;;;;;;2.10;1.70;;;;;;;;;;4955918;28;20253;-47
2023/08/23 06:30:01;;;;;;;3.97;1.90;;;;;;;;;;4955794;28;20568;-48
2023/08/23 06:32:29;;;;;;;5.05;1.80;;;;;;;;;;4955900;28;20207;-49
2023/08/23 06:34:56;;;;;;;3.10;2.00;;;;;;;;;;4955600;28;20204;-46
2023/08/23 06:37:23;;;;;;;4.45;2.03;;;;;;;;;;4955450;28;20203;-49
2023/08/23 06:39:50;;;;;;;3.47;1.85;;;;;;;;;;4955474;28;20235;-48
2023/08/23 06:42:17;;;;;;;2.05;1.80;;;;;;;;;;4955978;28;20203;-47
2023/08/23 06:44:45;;;;;;;5.80;1.80;;;;;;;;;;4955491;28;20616;-50
2023/08/23 06:47:13;;;;;;;2.47;1.65;;;;;;;;;;4955416;28;20203;-48
2023/08/23 06:49:40;;;;;;;6.53;1.80;;;;;;;;;;4955271;28;20231;-48
2023/08/23 06:52:07;;;;;;;2.08;1.80;;;;;;;;;;4955550;28;20203;-47
2023/08/23 06:54:34;;;;;;;2.22;1.67;;;;;;;;;;4955391;29;20208;-47
2023/08/23 06:57:01;;;;;;;6.22;1.90;;;;;;;;;;4955340;29;20240;-47
2023/08/23 06:59:29;;;;;;;3.92;1.92;;;;;;;;;;4955325;29;20672;-47
2023/08/23 07:01:55;;;;;;;4.07;2.05;;;;;;;;;;4955288;28;20290;-50
2023/08/23 07:04:23;;;;;;;6.28;2.00;;;;;;;;;;4955069;29;20691;-47
2023/08/23 07:06:50;;;;;;;2.45;1.50;;;;;;;;;;4955279;28;20641;-47
2023/08/23 07:09:17;;;;;;;3.65;1.85;;;;;;;;;;4959116;28;20246;-50
2023/08/23 07:11:44;;;;;;;2.70;1.80;;;;;;;;;;4959104;28;20214;-52
2023/08/23 07:14:12;;;;;;;4.82;2.33;;;;;;;;;;4959243;28;20262;-46
2023/08/23 07:16:39;;;;;;;3.05;1.50;;;;;;;;;;4959076;28;20214;-48
2023/08/23 07:19:06;;;;;;;7.97;2.10;;;;;;;;;;4956511;28;20577;-50
2023/08/23 07:21:33;;;;;;;4.30;2.30;;;;;;;;;;4949726;29;20282;-51
2023/08/23 07:24:00;;;;;;;4.45;2.25;;;;;;;;;;4939446;28;20208;-49
2023/08/23 07:26:27;;;;;;;5.55;2.33;;;;;;;;;;4948388;29;20237;-52
2023/08/23 07:28:55;;;;;;;3.05;2.17;;;;;;;;;;4958088;28;20641;-55
2023/08/23 07:31:22;;;;;;;3.55;2.30;;;;;;;;;;4958226;29;20744;-49
2023/08/23 07:33:49;;;;;;;4.38;2.42;;;;;;;;;;4958059;28;20665;-54
2023/08/23 07:36:16;;;;;;;3.63;2.45;;;;;;;;;;4958457;28;20290;-49
2023/08/23 07:38:44;;;;;;;4.20;2.08;;;;;;;;;;4957886;28;20235;-50
2023/08/23 07:41:11;;;;;;;4.05;2.28;;;;;;;;;;4957809;28;20200;-54
2023/08/23 07:43:38;;;;;;;5.35;2.30;;;;;;;;;;4958243;28;20653;-51
2023/08/23 07:46:07;;;;;;;4.13;2.08;;;;;;;;;;4957846;28;20211;-52
2023/08/23 07:48:34;;;;;;;4.03;1.85;;;;;;;;;;4956956;29;20239;-51
2023/08/23 07:51:01;;;;;;;2.38;1.70;;;;;;;;;;4957534;28;20223;-47
2023/08/23 07:53:29;;;;;;;2.00;1.52;;;;;;;;;;4957247;28;20215;-54
2023/08/23 07:55:56;;;;;;;2.95;1.25;;;;;;;;;;4957704;28;21061;-50
2023/08/23 07:58:23;;;;;;;6.78;1.65;;;;;;;;;;4957267;28;20553;-50
2023/08/23 08:00:51;;;;;;;4.35;1.65;;;;;;;;;;4957559;28;20203;-50
2023/08/23 08:03:18;;;;;;;5.90;1.60;;;;;;;;;;4957757;28;20274;-51
2023/08/23 08:05:46;;;;;;;2.88;1.58;;;;;;;;;;4957840;28;20211;-51
2023/08/23 08:08:13;;;;;;;2.60;1.52;;;;;;;;;;4957070;29;20238;-50
2023/08/23 08:10:41;;;;;;;5.63;1.58;;;;;;;;;;4957229;28;20270;-50
2023/08/23 08:13:08;;;;;;;3.95;1.65;;;;;;;;;;4957574;28;20207;-49
2023/08/23 08:15:38;;;;;;;2.78;1.80;;;;;;;;;;4957607;29;20196;-54
2023/08/23 08:18:06;;;;;;;3.95;1.33;;;;;;;;;;4957195;28;20676;-53
2023/08/23 08:20:33;;;;;;;4.63;1.77;;;;;;;;;;4957354;29;20211;-52
2023/08/23 08:23:01;;;;;;;2.45;1.52;;;;;;;;;;4956688;28;20250;-51
2023/08/23 08:25:27;;;;;;;2.35;1.38;;;;;;;;;;4956971;28;20242;-51
2023/08/23 08:27:55;;;;;;;2.25;1.40;;;;;;;;;;4957334;28;20211;-49
2023/08/23 08:30:22;;;;;;;2.08;1.52;;;;;;;;;;4957254;28;20203;-49
2023/08/23 08:32:49;;;;;;;4.55;2.13;;;;;;;;;;4957013;29;20546;-50
2023/08/23 08:35:16;;;;;;;5.93;1.77;;;;;;;;;;4956990;28;20214;-51
2023/08/23 08:37:43;;;;;;;5.00;1.33;;;;;;;;;;4956780;28;20609;-54
2023/08/23 08:40:11;;;;;;;3.17;1.48;;;;;;;;;;4956525;28;20204;-52
2023/08/23 08:42:38;;;;;;;2.45;1.48;;;;;;;;;;4956814;28;20214;-52
2023/08/23 08:45:06;;;;;;;3.47;1.73;;;;;;;;;;4957045;28;20218;-53
2023/08/23 08:47:33;;;;;;;5.13;1.77;;;;;;;;;;4956547;28;20207;-53
2023/08/23 08:50:00;;;;;;;2.85;1.50;;;;;;;;;;4956540;28;20318;-51
2023/08/23 08:52:29;;;;;;;4.15;1.58;;;;;;;;;;4956246;28;20217;-52
2023/08/23 08:54:57;;;;;;;3.38;1.80;;;;;;;;;;4957126;28;20217;-52
2023/08/23 08:57:25;;;;;;;2.90;1.58;;;;;;;;;;4955395;29;20208;-53
2023/08/23 08:59:54;;;;;;;3.03;1.73;;;;;;;;;;4951321;29;20208;-49
2023/08/23 09:02:23;;;;;;;2.58;1.65;;;;;;;;;;4936390;29;20560;-51
2023/08/23 09:04:51;;;;;;;5.85;1.80;;;;;;;;;;4952413;29;20203;-52
2023/08/23 09:07:18;;;;;;;3.80;1.90;;;;;;;;;;4937340;29;20665;-49
2023/08/23 09:09:45;;;;;;;4.32;1.70;;;;;;;;;;4937353;29;20657;-49
2023/08/23 09:12:12;;;;;;;4.93;1.70;;;;;;;;;;4936987;29;20665;-50
2023/08/23 09:14:39;;;;;;;5.20;1.52;;;;;;;;;;4937292;29;20691;-54
2023/08/23 09:17:10;;;;;;;2.13;1.55;;;;;;;;;;4937564;29;20211;-53
2023/08/23 09:19:40;;;;;;;3.83;1.50;;;;;;;;;;4937281;29;20303;-54
2023/08/23 09:22:07;;;;;;;4.15;1.70;;;;;;;;;;4937225;29;20196;-53
2023/08/23 09:24:34;;;;;;;2.53;1.50;;;;;;;;;;4937223;29;20208;-50
2023/08/23 09:27:02;;;;;;;3.55;1.50;;;;;;;;;;4937412;29;20208;-52
2023/08/23 09:29:29;;;;;;;2.78;1.40;;;;;;;;;;4936878;29;20239;-50
2023/08/23 09:32:00;;;;;;;2.28;1.45;;;;;;;;;;4936771;29;20228;-51
2023/08/23 09:34:27;;;;;;;4.57;1.38;;;;;;;;;;4937228;29;20197;-49
2023/08/23 09:37:04;;;;;;;1.85;1.40;;;;;;;;;;4936907;29;20204;-53
2023/08/23 09:39:31;;;;;;;1.80;1.52;;;;;;;;;;4936343;29;20250;-54
2023/08/23 09:42:04;;;;;;;2.67;1.40;;;;;;;;;;4937170;29;20204;-51
2023/08/23 09:44:35;;;;;;;2.75;1.50;;;;;;;;;;4935635;29;20725;-54
2023/08/23 09:47:05;;;;;;;1.92;1.50;;;;;;;;;;4936789;29;20192;-52
2023/08/23 09:49:33;;;;;;;2.17;1.40;;;;;;;;;;4935965;29;20294;-51
2023/08/23 09:52:02;;;;;;;4.70;1.30;;;;;;;;;;4936966;29;20215;-50
2023/08/23 09:54:53;;;;;;;2.05;1.33;;;;;;;;;;4936645;29;20582;-53
2023/08/23 09:57:41;;;;;;;4.13;1.40;;;;;;;;;;4935344;29;20692;-52
2023/08/23 10:00:08;;;;;;;3.33;1.38;;;;;;;;;;4936323;29;20208;-55
2023/08/23 10:02:36;;;;;;;3.55;1.27;;;;;;;;;;4936659;29;20417;-54
2023/08/23 10:05:06;;;;;;;5.65;1.23;;;;;;;;;;4936767;29;20290;-53
2023/08/23 10:07:35;;;;;;;2.80;1.20;;;;;;;;;;4951043;29;20196;-51
2023/08/23 10:10:05;;;;;;;1.88;1.20;;;;;;;;;;4936331;29;20232;-51
2023/08/23 10:12:40;;;;;;;3.67;1.38;;;;;;;;;;4938905;29;20201;-54
2023/08/23 10:15:09;;;;;;;2.67;1.40;;;;;;;;;;4955621;28;20187;-52
2023/08/23 10:17:37;;;;;;;2.13;1.20;;;;;;;;;;4955292;28;20211;-54
2023/08/23 10:20:07;;;;;;;3.70;1.48;;;;;;;;;;4954915;28;20207;-53
2023/08/23 10:22:35;;;;;;;2.30;1.30;;;;;;;;;;4955524;28;20196;-54
2023/08/23 10:25:17;;;;;;;2.92;1.40;;;;;;;;;;4954945;28;20609;-52
2023/08/23 10:27:46;;;;;;;2.35;1.20;;;;;;;;;;4955399;28;20214;-54
2023/08/23 10:30:21;;;;;;;3.42;1.52;;;;;;;;;;4954984;28;20234;-54
2023/08/23 10:32:48;;;;;;;4.20;1.55;;;;;;;;;;4955337;28;20222;-49
2023/08/23 10:35:28;;;;;;;3.35;1.40;;;;;;;;;;4955472;28;20547;-54
2023/08/23 10:37:56;;;;;;;1.52;1.20;;;;;;;;;;4955213;29;20192;-53
2023/08/23 10:40:28;;;;;;;2.42;0.88;;;;;;;;;;4955300;28;20206;-55
2023/08/23 10:42:55;;;;;;;2.88;1.05;;;;;;;;;;4954484;28;20199;-54
2023/08/23 10:45:24;;;;;;;2.25;1.23;;;;;;;;;;4955235;28;20207;-55
2023/08/23 10:47:51;;;;;;;2.45;1.25;;;;;;;;;;4955169;28;20218;-52
2023/08/23 10:50:19;;;;;;;2.22;1.15;;;;;;;;;;4954388;28;20251;-54
2023/08/23 10:52:49;;;;;;;2.95;1.60;;;;;;;;;;4954825;28;20215;-52
2023/08/23 10:55:16;;;;;;;2.50;1.30;;;;;;;;;;4955349;28;20210;-54
2023/08/23 10:57:44;;;;;;;3.17;1.50;;;;;;;;;;4954909;28;20207;-55
2023/08/23 11:00:13;;;;;;;5.47;1.48;;;;;;;;;;4953900;29;20557;-53
2023/08/23 11:02:40;;;;;;;3.35;1.25;;;;;;;;;;4954437;28;20199;-54
2023/08/23 11:05:08;;;;;;;2.03;1.35;;;;;;;;;;4955088;28;20210;-55
2023/08/23 11:07:36;;;;;;;4.50;1.40;;;;;;;;;;4954610;28;20273;-54
2023/08/23 11:10:04;;;;;;;3.80;1.65;;;;;;;;;;4953120;29;20247;-54
2023/08/23 11:12:31;;;;;;;3.28;1.20;;;;;;;;;;4953699;29;20215;-54
2023/08/23 11:14:58;;;;;;;4.18;1.58;;;;;;;;;;4954691;28;20203;-51
2023/08/23 11:17:25;;;;;;;2.72;1.33;;;;;;;;;;4954871;28;20207;-53
2023/08/23 11:19:53;;;;;;;2.28;1.40;;;;;;;;;;4954271;28;20270;-54
2023/08/23 11:22:24;;;;;;;1.63;1.20;;;;;;;;;;4953731;29;20211;-53
2023/08/23 11:24:52;;;;;;;5.43;1.13;;;;;;;;;;4954985;28;20191;-52
2023/08/23 11:27:19;;;;;;;1.75;1.00;;;;;;;;;;4954352;28;20206;-55
2023/08/23 11:29:46;;;;;;;2.63;1.73;;;;;;;;;;4954484;28;20231;-55
2023/08/23 11:32:14;;;;;;;21.10;11.23;;;;;;;;;;4954415;28;20214;-52
2023/08/23 11:34:41;;;;;;;9.55;3.00;;;;;;;;;;4954443;28;20204;-51
2023/08/23 11:37:09;;;;;;;3.55;1.45;;;;;;;;;;4953354;29;20214;-54
2023/08/23 11:39:36;;;;;;;5.53;1.38;;;;;;;;;;4954309;28;20720;-49
2023/08/23 11:42:03;;;;;;;4.50;1.45;;;;;;;;;;4954203;28;20212;-53
2023/08/23 11:44:30;;;;;;;2.90;1.42;;;;;;;;;;4953449;29;20215;-50
2023/08/23 11:46:59;;;;;;;3.63;1.55;;;;;;;;;;4954560;28;20231;-53
2023/08/23 11:49:27;;;;;;;1.92;1.23;;;;;;;;;;4953786;28;20755;-52
2023/08/23 11:51:58;;;;;;;4.25;1.10;;;;;;;;;;4954167;28;20203;-52
2023/08/23 11:54:25;;;;;;;2.53;1.20;;;;;;;;;;4956700;28;20188;-52
2023/08/23 11:56:53;;;;;;;2.88;1.20;;;;;;;;;;4956924;28;20298;-52
2023/08/23 11:59:21;;;;;;;1.90;1.08;;;;;;;;;;4957747;28;20208;-49
2023/08/23 12:01:49;;;;;;;3.67;1.23;;;;;;;;;;4957293;29;20215;-53
2023/08/23 12:04:16;;;;;;;7.53;1.30;;;;;;;;;;4957332;28;20207;-49
2023/08/23 12:06:44;;;;;;;4.47;1.00;;;;;;;;;;4957395;28;20731;-54
2023/08/23 12:09:11;;;;;;;2.35;1.10;;;;;;;;;;4957389;28;20223;-54
2023/08/23 12:11:39;;;;;;;3.42;1.40;;;;;;;;;;4956429;28;20215;-54
2023/08/23 12:14:06;;;;;;;1.95;1.00;;;;;;;;;;4956842;28;20299;-54
2023/08/23 12:16:34;;;;;;;1.75;1.10;;;;;;;;;;4957376;28;20211;-49
2023/08/23 12:19:02;;;;;;;4.13;1.23;;;;;;;;;;4956908;28;20672;-52
2023/08/23 12:21:49;;;;;;;3.13;1.27;;;;;;;;;;4957616;28;20192;-49
2023/08/23 12:24:17;;;;;;;5.18;1.38;;;;;;;;;;4957169;28;20204;-52
2023/08/23 12:26:45;;;;;;;2.20;1.00;;;;;;;;;;4951250;28;20212;-54
2023/08/23 12:29:12;;;;;;;3.47;1.00;;;;;;;;;;4948915;28;20231;-54
2023/08/23 12:31:39;;;;;;;3.05;1.20;;;;;;;;;;4956267;28;20295;-50
2023/08/23 12:34:06;;;;;;;3.47;1.05;;;;;;;;;;4955492;28;20701;-52
2023/08/23 12:36:34;;;;;;;4.40;1.30;;;;;;;;;;4959326;28;20219;-51
2023/08/23 12:39:01;;;;;;;1.98;1.13;;;;;;;;;;4959056;28;20227;-52
2023/08/23 12:41:29;;;;;;;3.15;1.23;;;;;;;;;;4968364;28;20322;-53
2023/08/23 12:43:55;;;;;;;3.95;1.00;;;;;;;;;;4967862;28;20305;-55
2023/08/23 12:46:23;;;;;;;1.83;1.05;;;;;;;;;;4956392;28;20227;-55
2023/08/23 12:48:50;;;;;;;1.17;0.93;;;;;;;;;;4956018;28;20320;-50
2023/08/23 12:51:17;;;;;;;1.05;0.70;;;;;;;;;;4954979;28;20251;-51
2023/08/23 12:53:44;;;;;;;2.63;1.25;;;;;;;;;;4985997;28;20226;-55
2023/08/23 12:56:12;;;;;;;4.80;1.10;;;;;;;;;;4953152;28;20220;-51
2023/08/23 12:58:39;;;;;;;4.97;1.05;;;;;;;;;;4955204;28;20599;-50
2023/08/23 13:01:07;;;;;;;3.45;1.40;;;;;;;;;;4954993;28;20223;-51
2023/08/23 13:03:34;;;;;;;2.38;1.20;;;;;;;;;;4955729;28;20704;-55
2023/08/23 13:06:02;;;;;;;1.45;0.88;;;;;;;;;;4954020;28;20227;-49
2023/08/23 13:08:29;;;;;;;2.20;1.20;;;;;;;;;;4955526;28;20650;-53
2023/08/23 13:10:56;;;;;;;1.30;1.08;;;;;;;;;;4954731;28;20231;-49
2023/08/23 13:13:23;;;;;;;2.38;1.10;;;;;;;;;;4955153;28;20226;-52
2023/08/23 13:15:51;;;;;;;3.88;1.02;;;;;;;;;;4952972;28;20215;-54
2023/08/23 13:18:18;;;;;;;2.83;1.15;;;;;;;;;;4955630;28;20696;-49
2023/08/23 13:20:46;;;;;;;6.88;1.30;;;;;;;;;;4954731;28;20238;-52
2023/08/23 13:23:13;;;;;;;2.35;1.17;;;;;;;;;;4955805;28;20258;-52
2023/08/23 13:25:40;;;;;;;2.47;1.30;;;;;;;;;;4955549;28;20234;-51
2023/08/23 13:28:07;;;;;;;6.45;1.00;;;;;;;;;;4955032;28;20227;-49
2023/08/23 13:30:34;;;;;;;3.33;1.02;;;;;;;;;;4936296;28;20243;-51
2023/08/23 13:33:02;;;;;;;1.30;0.85;;;;;;;;;;4936284;29;20231;-52
2023/08/23 13:35:29;;;;;;;4.45;1.30;;;;;;;;;;4935754;28;20228;-50
2023/08/23 13:37:56;;;;;;;2.90;1.10;;;;;;;;;;4935756;29;20224;-54
2023/08/23 13:40:23;;;;;;;2.40;0.88;;;;;;;;;;4935431;28;20236;-54
2023/08/23 13:42:51;;;;;;;2.20;1.10;;;;;;;;;;4935807;29;20231;-55
2023/08/23 13:45:36;;;;;;;3.47;1.00;;;;;;;;;;4951250;28;20227;-50
2023/08/23 13:48:03;;;;;;;2.75;1.23;;;;;;;;;;4953463;29;20215;-54
2023/08/23 13:50:31;;;;;;;2.70;0.90;;;;;;;;;;4957797;28;20239;-55
2023/08/23 13:52:58;;;;;;;1.63;1.08;;;;;;;;;;4957090;28;20267;-50
2023/08/23 13:55:26;;;;;;;3.30;1.10;;;;;;;;;;4957114;28;20227;-52
2023/08/23 13:57:53;;;;;;;3.30;1.30;;;;;;;;;;4955607;28;20231;-49
2023/08/23 14:00:21;;;;;;;1.73;1.08;;;;;;;;;;4964879;28;20238;-49
2023/08/23 14:02:48;;;;;;;2.55;0.85;;;;;;;;;;4952030;28;20247;-49
2023/08/23 14:05:15;;;;;;;1.50;1.17;;;;;;;;;;4954654;28;20642;-50
2023/08/23 14:07:43;;;;;;;1.40;0.90;;;;;;;;;;4955077;28;20229;-49
2023/08/23 14:10:11;;;;;;;4.38;1.13;;;;;;;;;;4954584;29;20235;-52
2023/08/23 14:12:38;;;;;;;3.30;1.05;;;;;;;;;;4954673;28;20223;-54
2023/08/23 14:15:06;;;;;;;1.42;0.90;;;;;;;;;;4955241;28;20228;-49
2023/08/23 14:17:33;;;;;;;2.58;1.27;;;;;;;;;;4954165;28;20228;-48
2023/08/23 14:20:01;;;;;;;2.90;1.02;;;;;;;;;;4954784;29;20239;-50
2023/08/23 14:22:28;;;;;;;1.50;0.90;;;;;;;;;;4954671;28;20651;-52
2023/08/23 14:24:56;;;;;;;4.18;1.17;;;;;;;;;;4954344;28;20238;-50
2023/08/23 14:27:23;;;;;;;2.03;0.90;;;;;;;;;;4954418;28;20223;-52
2023/08/23 14:29:50;;;;;;;2.28;0.88;;;;;;;;;;4953927;29;20607;-49
2023/08/23 14:32:18;;;;;;;4.88;0.95;;;;;;;;;;4953227;28;20599;-52
2023/08/23 14:34:46;;;;;;;5.38;1.05;;;;;;;;;;4954296;28;20242;-50
2023/08/23 14:37:12;;;;;;;3.33;0.98;;;;;;;;;;4954488;28;20234;-51
2023/08/23 14:39:43;;;;;;;2.60;1.00;;;;;;;;;;4943059;29;20240;-52
2023/08/23 14:42:10;;;;;;;1.58;1.00;;;;;;;;;;4947533;28;20237;-53
2023/08/23 14:44:40;;;;;;;2.42;1.08;;;;;;;;;;4954325;28;20620;-52
2023/08/23 14:47:07;;;;;;;2.15;1.00;;;;;;;;;;4943345;28;20582;-48
2023/08/23 14:49:34;;;;;;;2.15;0.80;;;;;;;;;;4935281;29;20232;-50